createdAt,value
2023-05-16T00:00:38.769Z,12.30
2023-05-16T00:03:06.467Z,12.30
2023-05-16T00:05:33.325Z,12.30
2023-05-16T00:10:27.663Z,12.30
2023-05-16T00:12:54.667Z,12.30
2023-05-16T00:15:22.738Z,12.40
2023-05-16T00:17:49.681Z,12.30
2023-05-16T00:20:18.984Z,12.30
2023-05-16T00:22:46.234Z,12.30
2023-05-16T00:25:13.052Z,12.10
2023-05-16T00:27:39.770Z,12.00
2023-05-16T00:30:07.479Z,11.90
2023-05-16T00:32:34.334Z,12.00
2023-05-16T00:35:01.312Z,12.00
2023-05-16T00:37:28.056Z,12.00
2023-05-16T00:39:55.013Z,12.00
2023-05-16T00:42:22.155Z,12.10
2023-05-16T00:44:48.986Z,12.00
2023-05-16T00:47:15.773Z,12.20
2023-05-16T00:49:42.894Z,12.20
2023-05-16T00:52:09.919Z,12.10
2023-05-16T00:54:37.151Z,12.20
2023-05-16T00:57:06.090Z,12.20
2023-05-16T00:59:33.552Z,12.10
2023-05-16T01:02:00.854Z,12.20
2023-05-16T01:04:28.507Z,12.10
2023-05-16T01:06:57.118Z,12.10
2023-05-16T01:09:24.051Z,12.10
2023-05-16T01:12:07.120Z,12.10
2023-05-16T01:15:08.264Z,12.10
2023-05-16T01:18:08.754Z,12.10
2023-05-16T01:20:49.337Z,12.00
2023-05-16T01:23:21.869Z,12.00
2023-05-16T01:26:12.025Z,12.00
2023-05-16T01:28:40.394Z,12.00
2023-05-16T01:31:07.211Z,11.90
2023-05-16T01:36:15.434Z,11.90
2023-05-16T01:38:50.004Z,11.90
2023-05-16T01:41:29.354Z,11.90
2023-05-16T01:44:02.007Z,11.70
2023-05-16T01:46:34.284Z,11.40
2023-05-16T01:49:31.426Z,11.30
2023-05-16T01:52:05.983Z,11.40
2023-05-16T01:54:35.905Z,11.40
2023-05-16T01:57:04.892Z,11.30
2023-05-16T01:59:33.085Z,11.20
2023-05-16T02:01:59.916Z,11.20
2023-05-16T02:04:26.753Z,11.10
2023-05-16T02:06:53.630Z,11.10
2023-05-16T02:09:20.534Z,11.00
2023-05-16T02:11:47.346Z,11.00
2023-05-16T02:14:14.243Z,11.10
2023-05-16T02:16:40.962Z,11.20
2023-05-16T02:19:07.847Z,11.10
2023-05-16T02:21:34.562Z,11.20
2023-05-16T02:24:01.723Z,11.30
2023-05-16T02:26:28.519Z,11.40
2023-05-16T02:28:55.336Z,11.40
2023-05-16T02:31:30.501Z,11.40
2023-05-16T02:33:58.674Z,11.20
2023-05-16T02:36:25.936Z,11.20
2023-05-16T02:38:52.889Z,11.30
2023-05-16T02:41:22.239Z,11.20
2023-05-16T02:43:49.394Z,11.20
2023-05-16T02:46:33.309Z,11.20
2023-05-16T02:49:00.572Z,11.20
2023-05-16T02:51:28.328Z,11.40
2023-05-16T02:53:59.780Z,11.40
2023-05-16T02:56:26.792Z,11.20
2023-05-16T02:58:54.824Z,11.20
2023-05-16T03:01:21.742Z,11.20
2023-05-16T03:03:48.712Z,11.10
2023-05-16T03:06:15.497Z,11.10
2023-05-16T03:08:42.253Z,11.10
2023-05-16T03:11:08.974Z,11.00
2023-05-16T03:13:35.689Z,10.90
2023-05-16T03:16:03.074Z,10.90
2023-05-16T03:18:29.940Z,10.80
2023-05-16T03:23:24.274Z,10.80
2023-05-16T03:25:51.343Z,10.90
2023-05-16T03:28:18.414Z,10.90
2023-05-16T03:30:46.265Z,10.90
2023-05-16T03:33:13.095Z,10.90
2023-05-16T03:35:40.318Z,10.80
2023-05-16T03:38:07.212Z,10.90
2023-05-16T03:40:33.996Z,10.90
2023-05-16T03:43:00.784Z,10.90
2023-05-16T03:45:29.848Z,10.90
2023-05-16T03:47:57.135Z,11.00
2023-05-16T03:50:24.038Z,11.00
2023-05-16T03:52:51.831Z,10.80
2023-05-16T03:55:18.541Z,10.70
2023-05-16T03:57:45.577Z,10.70
2023-05-16T04:00:12.816Z,10.70
2023-05-16T04:02:43.969Z,10.60
2023-05-16T04:05:11.863Z,10.50
2023-05-16T04:07:38.871Z,10.50
2023-05-16T04:10:06.435Z,10.60
2023-05-16T04:12:33.212Z,10.50
2023-05-16T04:14:59.974Z,10.40
2023-05-16T04:17:26.817Z,10.40
2023-05-16T04:19:53.645Z,10.40
2023-05-16T04:22:22.938Z,10.40
2023-05-16T04:24:50.154Z,10.30
2023-05-16T04:27:17.099Z,10.30
2023-05-16T04:32:12.473Z,10.20
2023-05-16T04:34:40.293Z,10.30
2023-05-16T04:37:08.490Z,10.40
2023-05-16T04:39:36.604Z,10.50
2023-05-16T04:42:04.291Z,10.30
2023-05-16T04:44:31.105Z,10.50
2023-05-16T04:46:57.992Z,10.40
2023-05-16T04:49:24.788Z,10.30
2023-05-16T04:51:51.543Z,10.20
2023-05-16T04:54:18.393Z,10.20
2023-05-16T04:56:45.157Z,10.40
2023-05-16T04:59:11.977Z,10.40
2023-05-16T05:01:39.554Z,10.50
2023-05-16T05:04:06.571Z,10.40
2023-05-16T05:06:33.482Z,10.40
2023-05-16T05:09:00.329Z,10.40
2023-05-16T05:11:27.503Z,10.30
2023-05-16T05:13:54.249Z,10.30
2023-05-16T05:16:21.102Z,10.30
2023-05-16T05:18:48.348Z,10.30
2023-05-16T05:21:15.221Z,10.20
2023-05-16T05:23:42.015Z,10.20
2023-05-16T05:26:08.756Z,10.20
2023-05-16T05:28:36.726Z,10.30
2023-05-16T05:31:05.208Z,10.30
2023-05-16T05:33:31.971Z,10.30
2023-05-16T05:35:58.761Z,10.20
2023-05-16T05:38:25.979Z,10.20
2023-05-16T05:40:53.024Z,10.20
2023-05-16T05:43:19.714Z,10.20
2023-05-16T05:45:46.790Z,10.30
2023-05-16T05:48:14.101Z,10.40
2023-05-16T05:50:41.079Z,10.40
2023-05-16T05:53:08.133Z,10.50
2023-05-16T05:55:34.927Z,10.50
2023-05-16T05:58:01.792Z,10.70
2023-05-16T06:00:29.438Z,10.70
2023-05-16T06:02:57.112Z,10.80
2023-05-16T06:05:24.071Z,10.70
2023-05-16T06:07:50.967Z,10.80
2023-05-16T06:10:17.792Z,10.60
2023-05-16T06:12:44.598Z,10.70
2023-05-16T06:15:11.698Z,10.80
2023-05-16T06:17:38.955Z,10.90
2023-05-16T06:20:06.862Z,10.80
2023-05-16T06:22:33.621Z,10.90
2023-05-16T06:25:00.522Z,11.10
2023-05-16T06:27:27.343Z,11.10
2023-05-16T06:29:54.210Z,11.10
2023-05-16T06:32:21.113Z,11.20
2023-05-16T06:34:49.185Z,11.20
2023-05-16T06:37:16.252Z,11.30
2023-05-16T06:42:11.116Z,11.60
2023-05-16T06:44:37.920Z,11.60
2023-05-16T06:47:05.387Z,12.00
2023-05-16T06:49:32.430Z,12.20
2023-05-16T06:51:59.221Z,12.40
2023-05-16T06:54:25.996Z,12.60
2023-05-16T06:56:52.780Z,12.60
2023-05-16T06:59:19.538Z,12.60
2023-05-16T07:01:46.478Z,12.80
2023-05-16T07:04:13.604Z,12.90
2023-05-16T07:06:40.543Z,13.00
2023-05-16T07:09:07.369Z,12.90
2023-05-16T07:11:34.156Z,12.90
2023-05-16T07:14:00.967Z,12.60
2023-05-16T07:16:28.713Z,12.50
2023-05-16T07:18:55.939Z,12.20
2023-05-16T07:21:22.785Z,12.20
2023-05-16T07:23:49.563Z,12.30
2023-05-16T07:26:16.847Z,12.60
2023-05-16T07:28:46.094Z,12.90
2023-05-16T07:31:12.911Z,13.10
2023-05-16T07:33:39.678Z,13.00
2023-05-16T07:36:16.183Z,12.90
2023-05-16T07:38:44.011Z,12.90
2023-05-16T07:41:10.969Z,12.50
2023-05-16T07:43:37.890Z,12.30
2023-05-16T07:46:05.385Z,12.40
2023-05-16T07:48:32.316Z,12.40
2023-05-16T07:50:59.132Z,12.60
2023-05-16T07:53:26.075Z,13.30
2023-05-16T07:55:53.238Z,13.50
2023-05-16T07:58:20.089Z,13.40
2023-05-16T08:00:46.978Z,13.30
2023-05-16T08:03:13.979Z,13.30
2023-05-16T08:05:41.040Z,13.50
2023-05-16T08:08:07.906Z,13.80
2023-05-16T08:10:34.685Z,13.80
2023-05-16T08:13:01.490Z,14.00
2023-05-16T08:15:28.825Z,14.30
2023-05-16T08:17:58.825Z,14.30
2023-05-16T08:20:26.565Z,14.10
2023-05-16T08:22:53.598Z,13.80
2023-05-16T08:25:20.766Z,13.90
2023-05-16T08:27:49.910Z,13.80
2023-05-16T08:30:17.015Z,13.40
2023-05-16T08:32:43.927Z,13.30
2023-05-16T08:35:11.314Z,13.60
2023-05-16T08:37:38.180Z,14.10
2023-05-16T08:40:08.363Z,14.50
2023-05-16T08:42:35.660Z,14.80
2023-05-16T08:45:03.085Z,14.80
2023-05-16T08:47:32.304Z,15.40
2023-05-16T08:50:01.632Z,15.90
2023-05-16T08:52:31.231Z,15.90
2023-05-16T08:57:33.838Z,15.30
2023-05-16T09:00:01.060Z,15.00
2023-05-16T09:02:31.076Z,14.70
2023-05-16T09:04:59.349Z,14.70
2023-05-16T09:07:26.535Z,14.30
2023-05-16T09:09:53.418Z,14.60
2023-05-16T09:12:20.687Z,14.80
2023-05-16T09:14:47.494Z,14.60
2023-05-16T09:17:18.434Z,14.90
2023-05-16T09:19:50.716Z,15.50
2023-05-16T09:22:18.203Z,15.90
2023-05-16T09:24:46.050Z,15.30
2023-05-16T09:27:14.654Z,15.00
2023-05-16T09:29:45.424Z,14.50
2023-05-16T09:32:16.660Z,14.40
2023-05-16T09:34:49.211Z,14.10
2023-05-16T09:37:16.895Z,13.90
2023-05-16T09:39:48.396Z,13.90
2023-05-16T09:42:16.335Z,14.40
2023-05-16T09:44:54.842Z,15.00
2023-05-16T09:47:22.620Z,15.40
2023-05-16T09:49:53.210Z,15.50
2023-05-16T09:52:20.502Z,15.50
2023-05-16T09:54:50.685Z,15.30
2023-05-16T09:57:27.135Z,15.60
2023-05-16T09:59:54.030Z,15.80
2023-05-16T10:02:21.830Z,16.30
2023-05-16T10:04:48.746Z,16.40
2023-05-16T10:07:17.188Z,16.40
2023-05-16T10:09:44.487Z,15.90
2023-05-16T10:12:15.662Z,15.50
2023-05-16T10:14:44.290Z,15.10
2023-05-16T10:17:14.315Z,15.20
2023-05-16T10:19:42.104Z,15.20
2023-05-16T10:22:12.044Z,14.60
2023-05-16T10:24:51.896Z,14.80
2023-05-16T10:27:19.425Z,15.50
2023-05-16T10:29:54.217Z,15.60
2023-05-16T10:32:23.871Z,15.80
2023-05-16T10:34:51.192Z,16.00
2023-05-16T10:37:18.086Z,15.50
2023-05-16T10:39:45.514Z,15.30
2023-05-16T10:42:14.321Z,15.10
2023-05-16T10:44:42.760Z,15.00
2023-05-16T10:47:20.274Z,14.90
2023-05-16T10:49:47.065Z,14.70
2023-05-16T10:52:15.717Z,14.50
2023-05-16T10:54:44.713Z,14.60
2023-05-16T10:57:22.839Z,14.50
2023-05-16T10:59:51.141Z,14.30
2023-05-16T11:02:35.293Z,14.50
2023-05-16T11:05:03.189Z,15.40
2023-05-16T11:07:34.824Z,15.90
2023-05-16T11:10:08.974Z,16.30
2023-05-16T11:12:48.621Z,16.20
2023-05-16T11:15:28.352Z,16.00
2023-05-16T11:18:08.676Z,15.70
2023-05-16T11:20:38.070Z,15.40
2023-05-16T11:23:22.969Z,15.20
2023-05-16T11:25:56.077Z,15.30
2023-05-16T11:28:27.849Z,15.20
2023-05-16T11:30:59.955Z,15.60
2023-05-16T11:33:29.826Z,16.30
2023-05-16T11:36:15.763Z,16.40
2023-05-16T11:38:43.882Z,16.90
2023-05-16T11:41:11.540Z,17.30
2023-05-16T11:43:43.375Z,17.40
2023-05-16T11:46:14.425Z,17.40
2023-05-16T11:48:41.918Z,17.50
2023-05-16T11:51:10.101Z,17.10
2023-05-16T11:53:38.297Z,16.30
2023-05-16T11:56:07.233Z,15.90
2023-05-16T11:58:34.079Z,15.80
2023-05-16T12:01:04.335Z,15.70
2023-05-16T12:03:36.099Z,15.90
2023-05-16T12:06:03.072Z,16.60
2023-05-16T12:08:30.778Z,17.40
2023-05-16T12:10:58.667Z,17.40
2023-05-16T12:13:25.932Z,17.60
2023-05-16T12:18:21.876Z,17.80
2023-05-16T12:20:49.234Z,17.70
2023-05-16T12:23:16.790Z,17.70
2023-05-16T12:25:47.664Z,17.30
2023-05-16T12:28:15.279Z,17.40
2023-05-16T12:30:44.208Z,17.40
2023-05-16T12:33:13.202Z,17.30
2023-05-16T12:35:45.482Z,17.30
2023-05-16T12:38:14.452Z,17.60
2023-05-16T12:40:43.550Z,17.60
2023-05-16T12:43:36.395Z,17.10
2023-05-16T12:46:09.800Z,16.80
2023-05-16T12:48:37.266Z,16.80
2023-05-16T12:51:15.319Z,16.50
2023-05-16T12:54:01.557Z,15.90
2023-05-16T12:56:35.111Z,15.60
2023-05-16T12:59:01.895Z,15.60
2023-05-16T13:01:28.807Z,15.10
2023-05-16T13:03:55.883Z,14.80
2023-05-16T13:06:22.814Z,14.80
2023-05-16T13:08:52.221Z,15.30
2023-05-16T13:11:19.196Z,15.70
2023-05-16T13:13:46.011Z,16.20
2023-05-16T13:16:13.022Z,16.70
2023-05-16T13:18:40.200Z,16.30
2023-05-16T13:21:06.977Z,16.20
2023-05-16T13:23:33.919Z,16.20
2023-05-16T13:26:00.905Z,17.40
2023-05-16T13:28:27.812Z,17.40
2023-05-16T13:30:54.620Z,17.80
2023-05-16T13:33:22.720Z,17.80
2023-05-16T13:35:49.587Z,17.40
2023-05-16T13:38:16.441Z,16.70
2023-05-16T13:40:43.250Z,16.90
2023-05-16T13:43:10.082Z,17.10
2023-05-16T13:45:37.530Z,17.30
2023-05-16T13:48:04.805Z,17.10
2023-05-16T13:50:34.104Z,17.50
2023-05-16T13:53:01.097Z,17.60
2023-05-16T13:55:28.463Z,17.50
2023-05-16T13:57:55.655Z,17.50
2023-05-16T14:02:52.978Z,17.20
2023-05-16T14:05:19.881Z,16.70
2023-05-16T14:07:47.320Z,16.70
2023-05-16T14:10:14.333Z,17.20
2023-05-16T14:12:41.380Z,17.30
2023-05-16T14:15:08.709Z,17.30
2023-05-16T14:17:35.561Z,16.70
2023-05-16T14:20:02.414Z,16.20
2023-05-16T14:22:29.226Z,15.70
2023-05-16T14:24:56.030Z,15.30
2023-05-16T14:29:50.051Z,15.20
2023-05-16T14:32:17.014Z,15.20
2023-05-16T14:34:43.960Z,15.50
2023-05-16T14:37:11.518Z,15.90
2023-05-16T14:39:38.378Z,16.20
2023-05-16T14:42:08.232Z,16.10
2023-05-16T14:47:04.263Z,16.40
2023-05-16T14:49:31.162Z,16.40
2023-05-16T14:51:58.084Z,16.60
2023-05-16T14:54:24.914Z,16.80
2023-05-16T14:56:52.254Z,16.80
2023-05-16T14:59:19.092Z,16.70
2023-05-16T15:01:46.013Z,16.70
2023-05-16T15:04:12.989Z,16.70
2023-05-16T15:06:39.783Z,16.60
2023-05-16T15:09:06.609Z,16.60
2023-05-16T15:11:33.416Z,16.90
2023-05-16T15:14:00.552Z,16.90
2023-05-16T15:16:27.396Z,16.90
2023-05-16T15:18:54.328Z,17.20
2023-05-16T15:21:21.160Z,17.40
2023-05-16T15:23:49.990Z,17.40
2023-05-16T15:26:19.635Z,17.20
2023-05-16T15:28:46.506Z,16.80
2023-05-16T15:31:13.577Z,16.40
2023-05-16T15:33:40.558Z,16.30
2023-05-16T15:36:07.914Z,16.00
2023-05-16T15:38:35.218Z,15.70
2023-05-16T15:41:18.696Z,15.40
2023-05-16T15:43:52.613Z,15.60
2023-05-16T15:46:19.540Z,15.60
2023-05-16T15:48:46.431Z,15.60
2023-05-16T15:51:13.601Z,15.70
2023-05-16T15:53:40.477Z,15.80
2023-05-16T15:56:08.823Z,15.80
2023-05-16T15:58:36.498Z,16.00
2023-05-16T16:01:03.733Z,16.10
2023-05-16T16:03:31.004Z,16.10
2023-05-16T16:05:57.948Z,16.00
2023-05-16T16:08:25.382Z,16.10
2023-05-16T16:10:52.267Z,16.10
2023-05-16T16:13:19.088Z,16.40
2023-05-16T16:15:45.950Z,16.40
2023-05-16T16:18:13.909Z,16.50
2023-05-16T16:20:40.919Z,16.70
2023-05-16T16:23:08.175Z,16.50
2023-05-16T16:25:35.051Z,16.20
2023-05-16T16:28:01.969Z,15.90
2023-05-16T16:30:28.763Z,16.00
2023-05-16T16:32:55.712Z,15.80
2023-05-16T16:35:25.811Z,15.70
2023-05-16T16:38:05.557Z,15.70
2023-05-16T16:40:33.325Z,15.70
2023-05-16T16:43:00.312Z,15.30
2023-05-16T16:45:27.575Z,15.40
2023-05-16T16:47:54.799Z,15.30
2023-05-16T16:50:21.706Z,15.20
2023-05-16T16:52:48.832Z,15.20
2023-05-16T16:55:15.699Z,15.20
2023-05-16T16:57:43.129Z,15.10
2023-05-16T17:00:11.538Z,15.20
2023-05-16T17:02:38.665Z,14.90
2023-05-16T17:05:06.520Z,14.80
2023-05-16T17:07:33.570Z,14.80
2023-05-16T17:10:01.202Z,14.90
2023-05-16T17:12:28.783Z,14.90
2023-05-16T17:14:58.847Z,14.70
2023-05-16T17:17:26.095Z,14.70
2023-05-16T17:19:53.129Z,14.80
2023-05-16T17:22:22.345Z,14.80
2023-05-16T17:24:49.465Z,14.80
2023-05-16T17:27:16.274Z,14.70
2023-05-16T17:29:43.164Z,14.60
2023-05-16T17:32:09.946Z,14.60
2023-05-16T17:34:37.100Z,14.40
2023-05-16T17:37:06.340Z,14.30
2023-05-16T17:39:34.162Z,14.20
2023-05-16T17:42:01.887Z,14.10
2023-05-16T17:44:28.749Z,14.20
2023-05-16T17:46:55.827Z,14.00
2023-05-16T17:49:22.768Z,13.90
2023-05-16T17:51:49.870Z,14.00
2023-05-16T17:54:18.496Z,13.90
2023-05-16T17:56:46.671Z,13.80
2023-05-16T17:59:13.991Z,13.80
2023-05-16T18:01:41.657Z,13.80
2023-05-16T18:04:09.312Z,13.60
2023-05-16T18:06:38.156Z,13.50
2023-05-16T18:09:15.068Z,13.50
2023-05-16T18:11:42.118Z,13.50
2023-05-16T18:14:09.360Z,13.50
2023-05-16T18:16:36.331Z,13.40
2023-05-16T18:21:32.384Z,13.50
2023-05-16T18:23:59.575Z,13.60
2023-05-16T18:26:27.954Z,13.50
2023-05-16T18:28:54.960Z,13.40
2023-05-16T18:31:22.196Z,13.40
2023-05-16T18:33:49.802Z,13.30
2023-05-16T18:36:16.583Z,13.20
2023-05-16T18:38:43.486Z,13.20
2023-05-16T18:41:10.541Z,13.20
2023-05-16T18:43:37.427Z,13.20
2023-05-16T18:46:04.612Z,13.10
2023-05-16T18:48:32.440Z,13.10
2023-05-16T18:51:01.097Z,13.30
2023-05-16T18:53:27.943Z,13.20
2023-05-16T18:55:54.827Z,13.20
2023-05-16T18:58:21.881Z,13.20
2023-05-16T19:00:48.910Z,13.20
2023-05-16T19:03:15.782Z,13.10
2023-05-16T19:05:42.824Z,13.00
2023-05-16T19:08:09.831Z,13.10
2023-05-16T19:10:38.028Z,12.90
2023-05-16T19:13:08.911Z,12.80
2023-05-16T19:15:37.335Z,12.80
2023-05-16T19:18:05.041Z,12.80
2023-05-16T19:20:33.542Z,12.80
2023-05-16T19:23:01.009Z,12.80
2023-05-16T19:25:28.261Z,12.70
2023-05-16T19:27:55.190Z,12.70
2023-05-16T19:30:23.340Z,12.50
2023-05-16T19:32:51.663Z,12.50
2023-05-16T19:35:19.632Z,12.50
2023-05-16T19:40:16.278Z,12.40
2023-05-16T19:42:43.994Z,12.40
2023-05-16T19:45:11.245Z,12.40
2023-05-16T19:47:38.319Z,12.30
2023-05-16T19:50:06.777Z,12.20
2023-05-16T19:52:33.983Z,12.20
2023-05-16T19:55:00.878Z,12.20
2023-05-16T19:57:27.999Z,12.20
2023-05-16T19:59:54.806Z,12.20
2023-05-16T20:02:24.347Z,12.20
2023-05-16T20:04:51.852Z,12.10
2023-05-16T20:07:18.890Z,12.20
2023-05-16T20:09:45.732Z,12.10
2023-05-16T20:12:12.837Z,12.00
2023-05-16T20:14:39.756Z,12.00
2023-05-16T20:17:06.554Z,12.00
2023-05-16T20:19:33.576Z,12.00
2023-05-16T20:22:01.209Z,12.00
2023-05-16T20:24:28.086Z,12.00
2023-05-16T20:26:54.832Z,11.90
2023-05-16T20:29:21.580Z,11.70
2023-05-16T20:31:48.391Z,11.90
2023-05-16T20:34:15.208Z,11.90
2023-05-16T20:36:42.071Z,12.00
2023-05-16T20:39:09.140Z,12.00
2023-05-16T20:41:36.089Z,12.00
2023-05-16T20:44:02.889Z,12.00
2023-05-16T20:46:29.704Z,11.90
2023-05-16T20:48:56.580Z,11.70
2023-05-16T20:51:23.458Z,11.70
2023-05-16T20:53:50.874Z,11.70
2023-05-16T20:56:17.719Z,11.70
2023-05-16T20:58:44.506Z,11.70
2023-05-16T21:01:11.307Z,11.60
2023-05-16T21:03:38.248Z,11.50
2023-05-16T21:06:05.343Z,11.40
2023-05-16T21:08:32.402Z,11.40
2023-05-16T21:10:59.207Z,11.40
2023-05-16T21:13:26.293Z,11.20
2023-05-16T21:18:20.407Z,11.10
2023-05-16T21:20:47.297Z,11.10
2023-05-16T21:23:14.091Z,11.10
2023-05-16T21:25:41.199Z,10.90
2023-05-16T21:28:08.103Z,10.90
2023-05-16T21:30:34.888Z,10.90
2023-05-16T21:33:02.009Z,10.90
2023-05-16T21:35:29.229Z,10.90
2023-05-16T21:37:56.445Z,10.80
2023-05-16T21:40:25.534Z,10.70
2023-05-16T21:42:53.082Z,10.70
2023-05-16T21:45:19.969Z,10.70
2023-05-16T21:47:47.263Z,10.70
2023-05-16T21:50:14.608Z,10.70
2023-05-16T21:52:41.982Z,10.60
2023-05-16T21:55:09.393Z,10.60
2023-05-16T21:57:36.330Z,10.70
2023-05-16T22:00:09.341Z,10.60
2023-05-16T22:02:37.400Z,10.50
2023-05-16T22:05:05.109Z,10.50
2023-05-16T22:07:32.145Z,10.50
2023-05-16T22:09:59.888Z,10.40
2023-05-16T22:12:27.521Z,10.40
2023-05-16T22:14:54.514Z,10.40
2023-05-16T22:17:21.472Z,10.40
2023-05-16T22:19:48.524Z,10.40
2023-05-16T22:22:15.425Z,10.40
2023-05-16T22:24:42.228Z,10.40
2023-05-16T22:27:09.146Z,10.40
2023-05-16T22:29:38.331Z,10.40
2023-05-16T22:32:06.545Z,10.40
2023-05-16T22:34:34.055Z,10.30
2023-05-16T22:37:00.857Z,10.30
2023-05-16T22:39:27.639Z,10.30
2023-05-16T22:41:54.383Z,10.30
2023-05-16T22:44:21.842Z,10.30
2023-05-16T22:46:48.740Z,10.20
2023-05-16T22:49:16.309Z,10.10
2023-05-16T22:51:43.136Z,10.00
2023-05-16T22:54:10.055Z,10.00
2023-05-16T22:56:36.876Z,9.90
2023-05-16T22:59:03.589Z,9.90
2023-05-16T23:01:30.449Z,10.00
2023-05-16T23:03:57.303Z,10.00
2023-05-16T23:06:24.148Z,10.00
2023-05-16T23:08:50.891Z,10.10
2023-05-16T23:11:19.699Z,10.10
2023-05-16T23:13:46.707Z,10.10
2023-05-16T23:16:13.636Z,10.10
2023-05-16T23:21:08.242Z,10.00
2023-05-16T23:23:35.287Z,10.00
2023-05-16T23:26:02.282Z,10.00
2023-05-16T23:28:29.006Z,10.00
2023-05-16T23:30:56.023Z,10.00
2023-05-16T23:33:22.879Z,10.00
2023-05-16T23:35:49.652Z,9.90
2023-05-16T23:38:16.474Z,9.80
2023-05-16T23:40:43.283Z,9.80
2023-05-16T23:43:10.064Z,9.80
2023-05-16T23:45:37.388Z,9.90
2023-05-16T23:48:04.844Z,10.00
2023-05-16T23:50:32.156Z,10.00
2023-05-16T23:52:58.931Z,10.00
2023-05-16T23:55:25.868Z,10.00
2023-05-16T23:57:52.876Z,10.00
